Time;durP1;ratioP1;P1;durP2;ratioP2;P2;SDS_P1;SDS_P2;PMS_P1;PMS_P2;Temp;Humidity;BMP_temperature;BMP_pressure;BME280_temperature;BME280_humidity;BME280_pressure;Samples;Min_cycle;Max_cycle;Signal;HPM_P1;HPM_P2
2023/10/12 00:00:24;;;;;;;25.77;11.75;;;18.30;81.80;;;;;;9166010;19;20025;-69
2023/10/12 00:03:25;;;;;;;24.70;11.55;;;18.20;81.90;;;;;;9165704;19;20022;-69
2023/10/12 00:06:37;;;;;;;21.48;11.18;;;18.20;81.90;;;;;;9163787;19;20022;-69
2023/10/12 00:09:47;;;;;;;28.85;12.38;;;18.20;82.00;;;;;;9167134;19;20042;-69
2023/10/12 00:12:59;;;;;;;24.08;12.15;;;18.20;82.00;;;;;;9167733;19;20014;-69
2023/10/12 00:16:06;;;;;;;22.80;11.43;;;18.20;82.00;;;;;;9166552;19;20482;-69
2023/10/12 00:19:14;;;;;;;24.13;12.93;;;18.20;82.10;;;;;;9169487;19;20010;-69
2023/10/12 00:22:23;;;;;;;23.92;11.13;;;18.20;82.10;;;;;;9177764;19;20025;-69
2023/10/12 00:25:34;;;;;;;27.08;13.10;;;18.20;82.20;;;;;;9169301;19;20003;-70
2023/10/12 00:28:44;;;;;;;24.77;13.02;;;18.10;82.20;;;;;;9173262;19;20400;-70
2023/10/12 00:31:55;;;;;;;25.08;12.77;;;18.10;82.20;;;;;;9169195;19;20014;-69
2023/10/12 00:35:01;;;;;;;22.08;12.27;;;18.10;82.30;;;;;;9165994;19;20044;-69
2023/10/12 00:38:17;;;;;;;35.97;14.75;;;18.10;82.30;;;;;;9162127;19;20014;-69
2023/10/12 00:41:24;;;;;;;26.17;12.88;;;18.10;82.40;;;;;;9162767;19;21528;-70
2023/10/12 00:44:40;;;;;;;31.23;13.85;;;18.10;82.50;;;;;;9164942;19;20022;-70
2023/10/12 00:47:48;;;;;;;22.85;12.23;;;18.10;82.40;;;;;;9160995;19;20026;-71
2023/10/12 00:50:56;;;;;;;24.63;13.52;;;18.10;82.50;;;;;;9162565;19;20010;-72
2023/10/12 00:54:10;;;;;;;32.33;13.63;;;18.10;82.60;;;;;;9162434;19;20015;-72
2023/10/12 00:57:18;;;;;;;31.30;14.35;;;18.10;82.60;;;;;;9163252;19;20015;-72
2023/10/12 01:00:26;;;;;;;28.98;13.25;;;18.10;82.70;;;;;;9164721;19;20014;-70
2023/10/12 01:03:35;;;;;;;25.00;13.00;;;18.00;82.50;;;;;;9164783;19;20010;-68
2023/10/12 01:06:44;;;;;;;26.13;13.10;;;18.00;82.50;;;;;;9161196;19;20018;-72
2023/10/12 01:10:03;;;;;;;29.25;14.20;;;18.00;82.70;;;;;;9163278;19;20054;-69
2023/10/12 01:13:09;;;;;;;27.00;14.70;;;18.00;82.80;;;;;;9161021;19;20718;-69
2023/10/12 01:16:23;;;;;;;26.25;12.93;;;17.90;82.70;;;;;;9163423;19;20020;-71
2023/10/12 01:19:39;;;;;;;27.20;12.20;;;17.90;82.80;;;;;;9162407;19;20266;-70
2023/10/12 01:22:57;;;;;;;13.90;7.10;;;17.90;82.90;;;;;;9164390;19;20019;-75
2023/10/12 01:26:10;;;;;;;5.57;3.35;;;18.00;83.00;;;;;;9162720;19;20531;-75
2023/10/12 01:29:20;;;;;;;5.53;2.20;;;17.90;82.90;;;;;;9160591;19;20017;-74
2023/10/12 01:32:36;;;;;;;6.03;2.63;;;17.90;83.00;;;;;;9161703;19;20021;-74
2023/10/12 01:35:49;;;;;;;5.60;2.40;;;17.80;83.00;;;;;;9160289;19;20760;-75
2023/10/12 01:39:11;;;;;;;3.60;2.47;;;17.80;83.10;;;;;;9154840;19;20015;-73
2023/10/12 01:42:21;;;;;;;6.03;2.03;;;17.80;83.10;;;;;;9162848;19;20579;-71
2023/10/12 01:45:41;;;;;;;9.07;2.90;;;17.80;83.10;;;;;;9163211;19;20022;-75
2023/10/12 01:48:49;;;;;;;5.43;2.67;;;17.80;83.10;;;;;;9163859;19;20015;-76
2023/10/12 01:51:57;;;;;;;3.70;2.60;;;17.70;83.20;;;;;;9162638;19;20029;-75
2023/10/12 01:55:16;;;;;;;3.75;2.20;;;17.70;83.20;;;;;;9160416;19;20018;-74
2023/10/12 01:58:23;;;;;;;2.70;0.80;;;17.70;83.20;;;;;;9161554;19;20019;-73
2023/10/12 02:01:33;;;;;;;1.42;0.57;;;17.70;83.10;;;;;;9161374;19;20011;-76
2023/10/12 02:04:40;;;;;;;2.60;0.73;;;17.60;83.60;;;;;;9161652;19;20022;-74
2023/10/12 02:07:48;;;;;;;1.15;0.43;;;17.60;83.00;;;;;;9160038;19;20014;-75
2023/10/12 02:11:04;;;;;;;3.25;0.80;;;17.50;83.00;;;;;;9161056;19;20022;-77
2023/10/12 02:14:22;;;;;;;1.55;0.70;;;17.50;83.00;;;;;;9160687;19;20011;-75
2023/10/12 02:17:28;;;;;;;2.83;0.68;;;17.40;82.90;;;;;;9162471;19;20063;-74
2023/10/12 02:20:42;;;;;;;2.95;1.55;;;17.40;82.90;;;;;;9163230;19;20014;-72
2023/10/12 02:23:57;;;;;;;3.40;0.52;;;17.30;82.70;;;;;;9158903;19;20022;-72
2023/10/12 02:27:08;;;;;;;4.43;0.85;;;17.20;83.40;;;;;;9167203;19;20476;-71
2023/10/12 02:30:18;;;;;;;5.35;1.02;;;17.20;82.70;;;;;;9169402;19;20014;-73
2023/10/12 02:33:27;;;;;;;8.27;1.63;;;17.10;82.60;;;;;;9169092;19;20025;-72
2023/10/12 02:36:33;;;;;;;6.90;1.48;;;17.00;82.50;;;;;;9164596;19;20029;-71
2023/10/12 02:39:42;;;;;;;9.68;1.95;;;16.90;82.50;;;;;;9171862;19;20014;-74
2023/10/12 02:42:51;;;;;;;9.05;1.65;;;16.80;82.70;;;;;;9169885;19;20021;-75
2023/10/12 02:46:06;;;;;;;4.53;1.30;;;16.70;82.40;;;;;;9168269;19;20018;-73
2023/10/12 02:49:13;;;;;;;9.73;1.90;;;16.70;82.50;;;;;;9170828;19;20022;-75
2023/10/12 02:52:22;;;;;;;10.27;2.33;;;16.60;83.10;;;;;;9172239;19;20763;-74
2023/10/12 02:55:40;;;;;;;8.60;1.55;;;16.50;82.60;;;;;;9169261;19;20632;-75
2023/10/12 02:58:51;;;;;;;10.68;2.13;;;16.40;82.50;;;;;;9169822;19;20014;-72
2023/10/12 03:02:18;;;;;;;9.60;2.15;;;16.40;82.60;;;;;;9169597;19;20026;-73
2023/10/12 03:05:34;;;;;;;7.53;1.58;;;16.30;82.50;;;;;;9170099;19;20014;-74
2023/10/12 03:09:02;;;;;;;;;;;16.30;82.60;;;;;;9168663;19;20015;-74
2023/10/12 03:12:10;;;;;;;13.32;3.13;;;16.20;82.50;;;;;;9171686;19;19914;-74
2023/10/12 03:15:19;;;;;;;10.77;2.30;;;16.20;82.70;;;;;;9169349;19;20037;-74
2023/10/12 03:18:27;;;;;;;13.82;2.03;;;16.20;82.70;;;;;;9170798;19;20002;-74
2023/10/12 03:21:33;;;;;;;10.27;2.33;;;16.10;82.70;;;;;;9170435;19;20384;-76
2023/10/12 03:24:43;;;;;;;9.35;2.10;;;16.10;82.70;;;;;;9169741;19;20053;-71
2023/10/12 03:27:53;;;;;;;10.02;1.70;;;16.00;82.70;;;;;;9166079;19;20618;-73
2023/10/12 03:31:15;;;;;;;8.55;1.70;;;16.00;82.80;;;;;;9168012;19;20018;-73
2023/10/12 03:34:35;;;;;;;7.10;1.50;;;16.00;82.80;;;;;;9176737;19;20066;-74
2023/10/12 03:37:45;;;;;;;9.48;1.55;;;16.00;82.90;;;;;;9174291;19;20468;-74
2023/10/12 03:41:45;;;;;;;7.63;2.40;;;15.90;82.90;;;;;;9170640;19;20010;-73
2023/10/12 03:44:22;;;;;;;15.23;2.88;;;15.90;82.90;;;;;;9168952;19;20509;-75
2023/10/12 03:47:32;;;;;;;6.93;1.50;;;15.90;82.90;;;;;;9166059;19;20751;-75
2023/10/12 03:50:53;;;;;;;8.48;1.63;;;15.80;82.90;;;;;;9167579;19;20471;-73
2023/10/12 03:54:11;;;;;;;8.00;1.90;;;15.80;82.90;;;;;;9167488;19;20018;-73
2023/10/12 03:57:27;;;;;;;9.15;2.00;;;15.80;83.00;;;;;;9165903;19;20459;-74
2023/10/12 04:00:40;;;;;;;9.57;2.00;;;15.80;83.00;;;;;;9168832;19;20487;-75
2023/10/12 04:03:58;;;;;;;5.95;1.40;;;15.80;83.10;;;;;;9166277;19;20006;-72
2023/10/12 04:07:19;;;;;;;7.30;1.88;;;15.70;83.20;;;;;;9165309;19;20034;-75
2023/10/12 04:11:15;;;;;;;9.00;1.92;;;15.70;83.20;;;;;;9166693;19;20078;-74
2023/10/12 04:14:11;;;;;;;13.77;2.60;;;15.70;83.20;;;;;;9167149;19;20010;-72
2023/10/12 04:20:45;;;;;;;11.20;1.52;;;15.70;83.30;;;;;;9166798;19;20070;-75
2023/10/12 04:24:27;;;;;;;7.75;1.67;;;15.70;83.40;;;;;;9165713;19;20014;-75
2023/10/12 04:34:08;;;;;;;11.43;2.08;;;15.60;83.30;;;;;;9164838;19;20035;-75
2023/10/12 04:37:25;;;;;;;8.00;1.70;;;15.60;83.30;;;;;;9162481;19;20357;-76
2023/10/12 04:41:12;;;;;;;7.57;1.85;;;15.60;83.30;;;;;;9166903;19;20029;-74
2023/10/12 04:44:25;;;;;;;9.40;2.17;;;15.50;83.30;;;;;;9164471;19;20022;-75
2023/10/12 04:47:30;;;;;;;10.15;1.77;;;15.60;83.40;;;;;;9161121;19;20018;-74
2023/10/12 04:50:44;;;;;;;7.45;1.40;;;15.50;83.40;;;;;;9165963;19;21555;-75
2023/10/12 04:53:57;;;;;;;8.82;2.03;;;15.50;83.50;;;;;;9165100;19;20388;-75
2023/10/12 04:57:14;;;;;;;10.10;2.05;;;15.50;83.60;;;;;;9162996;19;20025;-72
2023/10/12 05:00:24;;;;;;;12.05;1.95;;;15.50;83.60;;;;;;9163372;19;20302;-73
2023/10/12 05:03:39;;;;;;;8.82;1.90;;;15.50;83.60;;;;;;9166157;19;20021;-74
2023/10/12 05:06:48;;;;;;;8.73;1.98;;;15.50;83.60;;;;;;9166204;19;20025;-72
2023/10/12 05:09:58;;;;;;;7.63;1.88;;;15.50;83.60;;;;;;9162483;19;20006;-74
2023/10/12 05:13:10;;;;;;;10.55;2.10;;;15.50;83.70;;;;;;9165130;19;20026;-72
2023/10/12 05:16:26;;;;;;;10.73;2.20;;;15.40;83.80;;;;;;9163942;19;20010;-72
2023/10/12 05:19:31;;;;;;;;;;;15.50;83.70;;;;;;9165609;19;20689;-73
2023/10/12 05:22:39;;;;;;;10.60;1.75;;;15.40;83.60;;;;;;9162477;19;20634;-73
2023/10/12 05:25:53;;;;;;;16.40;1.98;;;15.50;83.70;;;;;;9165823;19;20456;-72
2023/10/12 05:32:36;;;;;;;10.05;1.60;;;15.40;83.90;;;;;;9165635;19;20018;-73
2023/10/12 05:35:50;;;;;;;10.52;2.30;;;15.40;83.80;;;;;;9164190;19;20017;-73
2023/10/12 05:39:11;;;;;;;9.65;2.30;;;15.40;83.90;;;;;;9160409;19;20498;-74
2023/10/12 05:42:22;;;;;;;10.95;1.67;;;15.40;84.00;;;;;;9163905;19;20512;-74
2023/10/12 05:45:31;;;;;;;13.57;4.18;;;15.40;84.00;;;;;;9162936;19;20014;-73
2023/10/12 05:48:45;;;;;;;7.15;1.85;;;15.40;84.00;;;;;;9162628;19;20714;-73
2023/10/12 05:51:51;;;;;;;6.18;1.90;;;15.40;84.10;;;;;;9164660;19;20010;-75
2023/10/12 05:54:58;;;;;;;7.55;1.98;;;15.40;84.10;;;;;;9162941;19;20480;-75
2023/10/12 05:58:11;;;;;;;8.65;2.00;;;15.40;84.10;;;;;;9163144;19;20025;-74
2023/10/12 06:01:32;;;;;;;8.27;1.77;;;15.40;84.10;;;;;;9161977;19;20472;-74
2023/10/12 06:04:41;;;;;;;13.02;2.10;;;15.40;84.10;;;;;;9162645;19;20019;-74
2023/10/12 06:07:49;;;;;;;10.32;1.92;;;15.40;84.10;;;;;;9165973;19;20022;-75
2023/10/12 06:10:54;;;;;;;10.43;2.00;;;15.40;84.20;;;;;;9165469;19;20022;-73
2023/10/12 06:14:06;;;;;;;25.42;4.70;;;15.40;84.20;;;;;;9161524;19;20015;-75
2023/10/12 06:17:27;;;;;;;9.05;2.13;;;15.40;84.20;;;;;;9161858;19;20059;-74
2023/10/12 06:20:40;;;;;;;6.45;1.85;;;15.40;84.20;;;;;;9162668;19;20018;-76
2023/10/12 06:23:49;;;;;;;5.72;1.58;;;15.40;84.30;;;;;;9162052;19;20018;-75
2023/10/12 06:26:56;;;;;;;5.35;1.70;;;15.30;84.40;;;;;;9160107;19;20010;-74
2023/10/12 06:30:16;;;;;;;8.63;2.25;;;15.40;84.20;;;;;;9159334;19;20587;-75
2023/10/12 06:33:26;;;;;;;7.40;1.65;;;15.30;84.20;;;;;;9164406;19;20082;-75
2023/10/12 06:36:39;;;;;;;6.13;1.67;;;15.30;84.20;;;;;;9159245;19;20412;-75
2023/10/12 06:46:43;;;;;;;4.07;1.10;;;15.30;84.20;;;;;;9169446;19;20454;-77
2023/10/12 06:49:51;;;;;;;2.70;0.85;;;15.30;84.20;;;;;;9166501;19;20038;-76
2023/10/12 06:52:58;;;;;;;4.10;1.02;;;15.20;84.20;;;;;;9165380;19;20015;-73
2023/10/12 06:56:16;;;;;;;3.88;0.90;;;15.20;84.30;;;;;;9165493;19;20019;-75
2023/10/12 06:59:28;;;;;;;5.55;1.05;;;15.20;84.30;;;;;;9160792;19;20416;-74
2023/10/12 07:02:37;;;;;;;8.10;1.23;;;15.20;84.30;;;;;;9158892;19;20765;-73
2023/10/12 07:05:52;;;;;;;9.77;1.67;;;15.20;84.30;;;;;;9159867;19;20010;-74
2023/10/12 07:09:00;;;;;;;9.85;1.02;;;15.20;84.30;;;;;;9159363;19;20631;-71
2023/10/12 07:12:10;;;;;;;5.80;1.52;;;15.20;84.30;;;;;;9165895;19;20026;-73
2023/10/12 07:15:21;;;;;;;4.45;1.13;;;15.20;84.30;;;;;;9170528;19;20392;-73
2023/10/12 07:18:34;;;;;;;6.25;1.70;;;15.20;84.40;;;;;;9170457;19;20847;-72
2023/10/12 07:21:39;;;;;;;7.85;1.40;;;15.20;84.40;;;;;;9170194;19;20025;-72
2023/10/12 07:24:52;;;;;;;6.22;1.48;;;15.20;84.40;;;;;;9170862;19;20530;-73
2023/10/12 07:27:59;;;;;;;10.48;1.77;;;15.20;84.50;;;;;;9169447;19;20022;-75
2023/10/12 07:34:27;;;;;;;6.03;1.27;;;15.20;84.40;;;;;;9171973;19;20026;-73
2023/10/12 07:37:41;;;;;;;10.10;1.60;;;15.20;84.40;;;;;;9166658;19;20017;-73
2023/10/12 07:40:56;;;;;;;6.07;1.67;;;15.20;84.40;;;;;;9162874;19;20038;-72
2023/10/12 07:44:04;;;;;;;8.10;1.85;;;15.20;84.40;;;;;;9163831;19;20015;-73
2023/10/12 07:47:18;;;;;;;4.22;1.23;;;15.20;84.30;;;;;;9165170;19;20505;-72
2023/10/12 07:50:36;;;;;;;6.72;1.65;;;15.20;84.30;;;;;;9164795;19;20022;-73
2023/10/12 07:53:42;;;;;;;8.52;1.63;;;15.20;84.30;;;;;;9168316;19;20019;-73
2023/10/12 07:56:52;;;;;;;6.82;2.08;;;15.30;84.40;;;;;;9169407;19;20018;-71
2023/10/12 08:00:29;;;;;;;9.88;2.13;;;15.30;84.40;;;;;;9170824;19;20408;-72
2023/10/12 08:03:39;;;;;;;7.07;1.77;;;15.20;84.40;;;;;;9168851;19;20889;-71
2023/10/12 08:06:47;;;;;;;9.10;2.00;;;15.20;84.40;;;;;;9168225;19;20469;-70
2023/10/12 08:10:08;;;;;;;11.32;2.10;;;15.20;84.50;;;;;;9166995;19;20015;-71
2023/10/12 08:13:26;;;;;;;7.18;2.25;;;15.30;84.60;;;;;;9169687;19;20021;-71
2023/10/12 08:16:40;;;;;;;11.73;2.92;;;15.30;84.60;;;;;;9165996;19;20891;-70
2023/10/12 08:19:46;;;;;;;5.93;1.92;;;15.30;84.60;;;;;;9167016;19;20131;-71
2023/10/12 08:23:02;;;;;;;11.73;2.60;;;15.30;84.60;;;;;;9167808;19;20013;-71
2023/10/12 08:26:21;;;;;;;8.43;2.27;;;15.40;84.70;;;;;;9167344;19;20014;-71
2023/10/12 08:33:08;;;;;;;8.65;3.22;;;15.50;84.70;;;;;;9166736;19;20025;-71
2023/10/12 08:36:29;;;;;;;9.70;2.60;;;15.50;84.70;;;;;;9162482;19;20010;-72
2023/10/12 08:39:49;;;;;;;11.27;2.50;;;15.60;84.60;;;;;;9169210;19;20021;-70
2023/10/12 08:42:55;;;;;;;8.10;2.00;;;15.60;84.70;;;;;;9168052;19;20007;-70
2023/10/12 08:46:07;;;;;;;4.72;1.48;;;15.70;84.70;;;;;;9162995;19;20591;-70
2023/10/12 08:52:35;;;;;;;10.45;1.60;;;15.80;84.70;;;;;;9168861;19;20455;-70
2023/10/12 08:55:45;;;;;;;18.65;3.22;;;15.80;85.30;;;;;;9166847;19;20472;-72
2023/10/12 08:58:55;;;;;;;7.57;2.67;;;15.90;84.70;;;;;;9167656;19;20018;-70
2023/10/12 09:02:18;;;;;;;12.02;2.50;;;15.90;84.70;;;;;;9165372;19;20033;-73
2023/10/12 09:05:28;;;;;;;7.10;2.03;;;15.90;85.40;;;;;;9159852;19;20591;-71
2023/10/12 09:08:46;;;;;;;9.60;2.53;;;16.00;84.70;;;;;;9164766;19;20334;-71
2023/10/12 09:11:59;;;;;;;12.77;2.20;;;16.00;84.60;;;;;;9161925;19;20021;-71
2023/10/12 09:15:28;;;;;;;7.88;1.95;;;16.00;84.60;;;;;;9161232;19;20018;-71
2023/10/12 09:18:43;;;;;;;12.02;2.22;;;16.10;84.60;;;;;;9163655;19;20474;-71
2023/10/12 09:21:57;;;;;;;11.13;2.20;;;16.10;84.60;;;;;;9168907;19;20018;-71
2023/10/12 09:25:05;;;;;;;11.85;1.77;;;16.10;84.60;;;;;;9162282;19;20015;-71
2023/10/12 09:28:17;;;;;;;9.77;2.00;;;16.20;84.60;;;;;;9166356;19;20010;-70
2023/10/12 09:31:50;;;;;;;7.18;1.65;;;16.20;84.60;;;;;;9163614;19;20011;-71
2023/10/12 09:35:11;;;;;;;6.55;1.70;;;16.20;84.50;;;;;;9163979;19;20010;-71
2023/10/12 09:38:18;;;;;;;6.32;1.65;;;16.20;84.50;;;;;;9161246;19;20014;-72
2023/10/12 09:41:32;;;;;;;5.38;1.42;;;16.30;84.50;;;;;;9166789;19;20359;-71
2023/10/12 09:44:42;;;;;;;7.65;2.00;;;16.30;84.60;;;;;;9163175;19;20018;-72
2023/10/12 09:47:55;;;;;;;7.88;2.00;;;16.30;84.50;;;;;;9165844;19;20014;-71
2023/10/12 09:51:06;;;;;;;9.02;1.50;;;16.30;84.40;;;;;;9162923;19;20047;-71
2023/10/12 09:54:27;;;;;;;8.13;1.50;;;16.30;84.40;;;;;;9170397;19;20076;-78
2023/10/12 09:57:36;;;;;;;8.07;1.73;;;16.30;84.40;;;;;;9169762;19;20074;-71
2023/10/12 10:01:01;;;;;;;7.25;1.75;;;16.40;84.40;;;;;;9169438;19;20045;-72
2023/10/12 10:04:27;;;;;;;5.65;1.20;;;16.40;84.40;;;;;;9163682;19;20097;-70
2023/10/12 10:07:38;;;;;;;10.60;1.55;;;16.40;84.50;;;;;;9166264;19;20014;-71
2023/10/12 10:10:45;;;;;;;7.95;1.73;;;16.40;84.50;;;;;;9164346;19;20014;-72
2023/10/12 10:13:53;;;;;;;7.15;1.52;;;16.40;84.50;;;;;;9165504;19;20014;-72
2023/10/12 10:17:05;;;;;;;5.85;1.95;;;16.40;84.50;;;;;;9166527;19;20019;-72
2023/10/12 10:23:48;;;;;;;6.75;1.60;;;16.30;84.40;;;;;;9162555;19;20417;-72
2023/10/12 10:27:00;;;;;;;10.07;1.90;;;16.40;84.40;;;;;;9164504;19;20015;-73
2023/10/12 10:30:27;;;;;;;12.52;2.22;;;16.30;84.30;;;;;;9160049;19;20036;-72
2023/10/12 10:33:39;;;;;;;9.02;1.52;;;16.30;84.20;;;;;;9162910;19;20032;-72
2023/10/12 10:36:52;;;;;;;7.00;1.65;;;16.30;84.20;;;;;;9152286;19;20025;-71
2023/10/12 10:40:07;;;;;;;9.05;1.50;;;16.30;84.20;;;;;;9159411;19;20015;-72
2023/10/12 10:43:15;;;;;;;10.20;1.90;;;16.20;84.20;;;;;;9165830;19;20769;-74
2023/10/12 10:46:26;;;;;;;16.50;1.73;;;16.20;84.10;;;;;;9168443;19;20575;-73
2023/10/12 10:49:35;;;;;;;10.48;2.70;;;16.20;84.20;;;;;;9174856;19;20068;-73
2023/10/12 10:52:45;;;;;;;7.97;1.80;;;16.20;84.20;;;;;;9168704;19;20417;-73
2023/10/12 10:55:51;;;;;;;6.43;1.95;;;16.20;84.30;;;;;;9170788;19;20538;-72
2023/10/12 10:58:59;;;;;;;6.20;1.27;;;16.20;84.40;;;;;;9171333;19;20017;-72
2023/10/12 11:02:04;;;;;;;11.75;2.15;;;16.20;84.30;;;;;;9170202;19;20522;-72
2023/10/12 11:05:21;;;;;;;12.05;2.55;;;16.20;84.30;;;;;;9172864;19;20006;-72
2023/10/12 11:08:27;;;;;;;9.57;1.90;;;16.20;84.30;;;;;;9174349;19;20022;-72
2023/10/12 11:11:44;;;;;;;11.65;1.45;;;16.20;84.20;;;;;;9173502;19;20019;-71
2023/10/12 11:14:52;;;;;;;8.48;1.50;;;16.20;84.20;;;;;;9173499;19;20014;-74
2023/10/12 11:18:05;;;;;;;8.65;1.70;;;16.20;84.20;;;;;;9173841;19;20105;-73
2023/10/12 11:21:13;;;;;;;11.02;2.55;;;16.20;84.10;;;;;;9174985;19;20018;-71
2023/10/12 11:24:23;;;;;;;10.70;2.10;;;16.10;84.00;;;;;;9174800;19;20010;-71
2023/10/12 11:27:32;;;;;;;18.45;2.95;;;16.10;84.00;;;;;;9172234;19;20023;-72
2023/10/12 11:30:42;;;;;;;9.15;1.50;;;16.10;84.00;;;;;;9167377;19;20029;-72
2023/10/12 11:33:51;;;;;;;7.25;1.60;;;16.10;84.00;;;;;;9169386;19;20035;-71
2023/10/12 11:37:01;;;;;;;7.45;1.77;;;16.10;84.10;;;;;;9165604;19;20025;-71
2023/10/12 11:40:09;;;;;;;8.68;1.92;;;16.00;84.00;;;;;;9171481;19;20095;-72
2023/10/12 11:43:18;;;;;;;9.50;1.60;;;16.00;84.10;;;;;;9168693;19;20018;-71
2023/10/12 11:46:23;;;;;;;14.35;2.30;;;16.00;84.10;;;;;;9170220;19;20015;-71
2023/10/12 11:49:49;;;;;;;9.80;1.60;;;16.00;84.00;;;;;;9169231;19;20689;-72
2023/10/12 11:52:57;;;;;;;8.02;1.95;;;16.00;84.00;;;;;;9168597;19;20029;-71
2023/10/12 11:56:07;;;;;;;14.20;2.08;;;16.00;84.00;;;;;;9169492;19;20357;-72
2023/10/12 11:59:22;;;;;;;11.25;1.52;;;16.00;84.60;;;;;;9169668;19;20014;-71
2023/10/12 12:02:30;;;;;;;11.35;1.85;;;16.00;84.00;;;;;;9172860;19;20082;-70
2023/10/12 12:05:36;;;;;;;11.63;2.47;;;16.00;84.00;;;;;;9172609;19;20022;-71
2023/10/12 12:08:47;;;;;;;11.27;2.50;;;16.00;83.90;;;;;;9175732;19;20018;-71
2023/10/12 12:11:53;;;;;;;8.40;1.30;;;15.90;83.80;;;;;;9174290;19;20014;-70
2023/10/12 12:15:03;;;;;;;12.85;1.80;;;15.90;83.90;;;;;;9172833;19;20014;-70
2023/10/12 12:18:14;;;;;;;7.80;1.65;;;15.90;83.90;;;;;;9172603;19;20018;-71
2023/10/12 12:21:29;;;;;;;11.10;1.92;;;15.90;83.80;;;;;;9173604;19;20664;-72
2023/10/12 12:24:37;;;;;;;9.55;1.73;;;15.90;83.80;;;;;;9173267;19;20085;-71
2023/10/12 12:27:48;;;;;;;6.20;1.60;;;15.80;83.80;;;;;;9173593;19;20365;-71
2023/10/12 12:30:55;;;;;;;10.98;2.00;;;15.80;83.80;;;;;;9165863;19;20027;-71
2023/10/12 12:34:07;;;;;;;6.75;1.77;;;15.80;83.90;;;;;;9168535;19;20007;-70
2023/10/12 12:37:16;;;;;;;5.82;2.08;;;15.80;83.90;;;;;;9164775;19;20022;-71
2023/10/12 12:40:30;;;;;;;6.28;1.88;;;15.80;83.90;;;;;;9171528;19;20959;-71
2023/10/12 12:43:36;;;;;;;12.23;1.85;;;15.80;84.00;;;;;;9170583;19;20013;-71
2023/10/12 12:46:43;;;;;;;7.68;1.30;;;15.70;83.90;;;;;;9168792;19;20357;-72
2023/10/12 12:49:49;;;;;;;6.07;1.50;;;15.70;83.90;;;;;;9170622;19;20028;-72
2023/10/12 12:52:57;;;;;;;8.00;2.15;;;15.70;84.00;;;;;;9164059;19;20014;-71
2023/10/12 12:56:10;;;;;;;9.20;1.63;;;15.60;83.90;;;;;;9168427;19;20027;-71
2023/10/12 12:59:21;;;;;;;17.70;2.65;;;15.60;84.00;;;;;;9169509;19;20014;-74
2023/10/12 13:02:27;;;;;;;9.88;2.35;;;15.60;84.00;;;;;;9166395;19;20015;-71
2023/10/12 13:05:36;;;;;;;12.57;2.00;;;15.60;84.00;;;;;;9171634;19;20014;-72
2023/10/12 13:08:41;;;;;;;11.60;1.60;;;15.60;84.00;;;;;;9169585;19;20352;-72
2023/10/12 13:11:51;;;;;;;12.25;2.67;;;15.50;84.00;;;;;;9171985;19;20010;-73
2023/10/12 13:15:00;;;;;;;11.27;2.38;;;15.50;84.10;;;;;;9168201;19;20019;-72
2023/10/12 13:18:14;;;;;;;9.73;1.52;;;15.50;84.10;;;;;;9168642;19;20017;-72
2023/10/12 13:21:22;;;;;;;8.73;1.83;;;15.40;84.00;;;;;;9167294;19;20509;-71
2023/10/12 13:24:35;;;;;;;13.68;1.48;;;15.40;84.10;;;;;;9163564;19;20021;-72
2023/10/12 13:27:43;;;;;;;8.30;1.60;;;15.40;84.20;;;;;;9166555;19;20010;-71
2023/10/12 13:30:51;;;;;;;6.97;1.58;;;15.40;84.30;;;;;;9164169;19;20013;-70
2023/10/12 13:33:57;;;;;;;6.40;1.67;;;15.40;84.40;;;;;;9166133;19;20018;-72
2023/10/12 13:37:05;;;;;;;13.32;1.98;;;15.40;84.40;;;;;;9164117;19;20006;-72
2023/10/12 13:40:15;;;;;;;8.38;1.88;;;15.40;84.40;;;;;;9166738;19;20010;-70
2023/10/12 13:43:26;;;;;;;6.80;2.10;;;15.30;84.30;;;;;;9169328;19;20010;-70
2023/10/12 13:46:32;;;;;;;10.63;3.00;;;15.30;84.30;;;;;;9168329;19;20089;-71
2023/10/12 13:49:40;;;;;;;8.50;2.15;;;15.30;84.50;;;;;;9165493;19;20575;-71
2023/10/12 13:52:45;;;;;;;7.57;3.28;;;15.20;84.30;;;;;;9167117;19;20029;-72
2023/10/12 13:55:53;;;;;;;6.07;2.08;;;14.70;84.10;;;;;;9167292;19;20010;-72
2023/10/12 13:59:05;;;;;;;8.55;2.45;;;15.20;84.50;;;;;;9166015;19;20062;-72
2023/10/12 14:02:13;;;;;;;7.15;1.83;;;15.20;84.60;;;;;;9167149;19;20014;-73
2023/10/12 14:05:24;;;;;;;4.80;1.98;;;15.20;84.50;;;;;;9164507;19;20026;-72
2023/10/12 14:08:32;;;;;;;6.72;2.03;;;15.20;84.60;;;;;;9165367;19;20057;-73
2023/10/12 14:11:39;;;;;;;6.50;2.65;;;15.20;84.60;;;;;;9163423;19;20352;-73
2023/10/12 14:14:50;;;;;;;4.18;2.25;;;15.20;84.60;;;;;;9162634;19;20025;-74
2023/10/12 14:17:59;;;;;;;6.20;3.03;;;15.20;84.80;;;;;;9161706;19;20025;-71
2023/10/12 14:21:10;;;;;;;11.57;3.85;;;15.10;84.70;;;;;;9158322;19;20463;-73
2023/10/12 14:24:17;;;;;;;6.90;3.50;;;15.10;84.80;;;;;;9166757;19;20017;-73
2023/10/12 14:27:24;;;;;;;9.93;4.28;;;15.10;84.80;;;;;;9162235;19;20659;-73
2023/10/12 14:30:53;;;;;;;9.35;3.85;;;15.10;85.00;;;;;;9161894;19;20026;-72
2023/10/12 14:34:02;;;;;;;8.75;4.03;;;15.10;85.00;;;;;;9163395;19;20006;-73
2023/10/12 14:37:13;;;;;;;8.80;3.88;;;15.10;85.00;;;;;;9159292;19;20031;-73
2023/10/12 14:40:21;;;;;;;6.97;4.00;;;15.10;85.00;;;;;;9162841;19;20015;-72
2023/10/12 14:43:30;;;;;;;7.32;3.92;;;15.00;84.90;;;;;;9163236;19;21170;-72
2023/10/12 14:46:41;;;;;;;8.00;3.88;;;15.00;85.00;;;;;;9163201;19;20017;-71
2023/10/12 14:49:48;;;;;;;8.90;4.30;;;15.00;85.10;;;;;;9163153;19;20819;-72
2023/10/12 14:52:56;;;;;;;8.13;4.70;;;15.00;85.10;;;;;;9159582;19;20011;-73
2023/10/12 14:56:03;;;;;;;8.30;4.70;;;15.00;85.10;;;;;;9164554;19;20026;-72
2023/10/12 14:59:11;;;;;;;8.93;4.10;;;15.00;85.20;;;;;;9165628;19;20022;-73
2023/10/12 15:02:19;;;;;;;7.30;4.68;;;15.00;85.20;;;;;;9161363;19;20010;-73
2023/10/12 15:05:30;;;;;;;10.00;4.05;;;15.00;85.30;;;;;;9164123;19;20022;-73
2023/10/12 15:08:37;;;;;;;6.57;4.13;;;15.00;85.30;;;;;;9164414;19;20014;-73
2023/10/12 15:11:45;;;;;;;10.13;5.93;;;15.00;85.30;;;;;;9166514;19;20082;-73
2023/10/12 15:14:54;;;;;;;11.77;5.82;;;15.00;85.40;;;;;;9162724;19;20099;-72
2023/10/12 15:18:04;;;;;;;8.77;5.00;;;15.00;85.40;;;;;;9161215;19;20010;-73
2023/10/12 15:21:12;;;;;;;7.32;4.10;;;14.90;85.50;;;;;;9163509;19;20014;-72
2023/10/12 15:24:23;;;;;;;9.60;4.65;;;14.90;85.50;;;;;;9161454;19;20010;-74
2023/10/12 15:27:32;;;;;;;12.27;5.45;;;14.90;85.50;;;;;;9161653;19;20022;-72
2023/10/12 15:30:44;;;;;;;7.93;4.90;;;14.90;85.70;;;;;;9156232;19;20025;-73
2023/10/12 15:33:52;;;;;;;8.90;4.97;;;14.90;85.80;;;;;;9165716;19;20029;-72
2023/10/12 15:37:01;;;;;;;10.20;5.90;;;15.00;86.00;;;;;;9166498;19;20112;-73
2023/10/12 15:40:09;;;;;;;11.93;5.68;;;15.00;86.00;;;;;;9167036;19;20011;-73
2023/10/12 15:43:17;;;;;;;9.55;5.50;;;15.00;86.10;;;;;;9169130;19;20011;-72
2023/10/12 15:46:24;;;;;;;7.82;4.85;;;15.00;86.20;;;;;;9170619;19;20045;-72
2023/10/12 15:49:35;;;;;;;9.55;5.88;;;15.00;86.20;;;;;;9168219;19;20014;-73
2023/10/12 15:52:40;;;;;;;8.02;5.03;;;15.10;86.40;;;;;;9171553;19;20493;-73
2023/10/12 15:55:48;;;;;;;10.38;5.85;;;15.10;86.30;;;;;;9168027;19;20018;-74
2023/10/12 15:58:53;;;;;;;10.45;6.35;;;15.10;86.30;;;;;;9171409;19;20017;-72
2023/10/12 16:02:03;;;;;;;9.50;6.10;;;15.20;86.40;;;;;;9172304;19;20372;-72
2023/10/12 16:05:11;;;;;;;10.63;6.90;;;15.10;86.40;;;;;;9170056;19;20056;-72
2023/10/12 16:08:21;;;;;;;13.55;8.40;;;15.20;86.50;;;;;;9170617;19;20021;-73
2023/10/12 16:11:26;;;;;;;10.65;6.95;;;15.20;86.50;;;;;;9171273;19;20011;-72
2023/10/12 16:14:34;;;;;;;10.13;6.15;;;15.30;86.50;;;;;;9165272;19;20031;-71
2023/10/12 16:17:40;;;;;;;11.30;5.63;;;15.30;86.50;;;;;;9183582;19;20041;-75
2023/10/12 16:20:51;;;;;;;14.00;5.65;;;15.30;86.60;;;;;;9178983;19;20348;-71
2023/10/12 16:23:56;;;;;;;10.07;5.95;;;15.30;86.60;;;;;;9175509;19;20670;-72
2023/10/12 16:27:07;;;;;;;12.50;5.50;;;15.40;86.60;;;;;;9169041;19;20022;-72
2023/10/12 16:30:14;;;;;;;7.70;5.32;;;15.30;86.60;;;;;;9167467;19;20748;-72
2023/10/12 16:33:21;;;;;;;8.50;6.03;;;15.40;86.60;;;;;;9165872;19;20021;-71
2023/10/12 16:36:29;;;;;;;7.75;5.60;;;15.40;86.60;;;;;;9161524;19;20015;-72
2023/10/12 16:39:38;;;;;;;9.07;5.95;;;15.40;86.60;;;;;;9167659;19;20029;-72
2023/10/12 16:42:43;;;;;;;8.45;5.28;;;15.40;86.60;;;;;;9166675;19;20052;-72
2023/10/12 16:45:52;;;;;;;7.55;5.18;;;15.40;86.50;;;;;;9163329;19;20029;-72
2023/10/12 16:48:58;;;;;;;9.95;5.60;;;15.40;86.60;;;;;;9165867;19;20010;-70
2023/10/12 16:52:08;;;;;;;10.27;5.78;;;15.50;86.60;;;;;;9168577;19;20015;-72
2023/10/12 16:55:14;;;;;;;9.05;5.85;;;15.50;86.70;;;;;;9163361;19;20372;-72
2023/10/12 16:58:21;;;;;;;10.43;6.18;;;15.40;86.60;;;;;;9166152;19;20026;-70
2023/10/12 17:01:27;;;;;;;14.63;5.85;;;15.50;87.00;;;;;;9164408;19;20025;-71
2023/10/12 17:04:45;;;;;;;9.88;5.60;;;15.20;87.80;;;;;;9163016;19;20019;-72